createdAt,value
2018-12-08T00:00:51.455Z,94.70
2018-12-08T00:02:56.297Z,94.80
2018-12-08T00:05:01.700Z,95.10
2018-12-08T00:07:06.138Z,94.90
2018-12-08T00:09:11.068Z,94.90
2018-12-08T00:11:15.388Z,94.90
2018-12-08T00:13:23.491Z,94.80
2018-12-08T00:15:28.184Z,94.60
2018-12-08T00:17:33.596Z,94.50
2018-12-08T00:19:43.170Z,94.60
2018-12-08T00:21:48.288Z,94.70
2018-12-08T00:23:53.369Z,94.70
2018-12-08T00:25:57.747Z,94.70
2018-12-08T00:28:02.629Z,94.60
2018-12-08T00:30:18.405Z,94.80
2018-12-08T00:32:22.889Z,94.90
2018-12-08T00:34:27.215Z,94.80
2018-12-08T00:36:33.663Z,94.80
2018-12-08T00:38:38.784Z,94.90
2018-12-08T00:40:44.212Z,95.00
2018-12-08T00:42:48.483Z,95.00
2018-12-08T00:44:53.223Z,94.80
2018-12-08T00:46:57.620Z,94.80
2018-12-08T00:49:01.864Z,94.60
2018-12-08T00:51:06.134Z,94.80
2018-12-08T00:53:10.479Z,94.90
2018-12-08T00:55:15.783Z,95.00
2018-12-08T00:57:21.143Z,95.20
2018-12-08T00:59:27.028Z,95.10
2018-12-08T01:01:31.460Z,95.00
2018-12-08T01:03:35.809Z,94.90
2018-12-08T01:05:40.329Z,95.20
2018-12-08T01:07:45.109Z,95.20
2018-12-08T01:09:50.385Z,95.40
2018-12-08T01:11:56.705Z,95.30
2018-12-08T01:14:01.113Z,95.30
2018-12-08T01:16:07.424Z,95.30
2018-12-08T01:18:11.853Z,95.40
2018-12-08T01:20:18.920Z,95.50
2018-12-08T01:22:24.980Z,95.40
2018-12-08T01:24:29.714Z,95.40
2018-12-08T01:26:34.016Z,95.40
2018-12-08T01:28:38.803Z,95.40
2018-12-08T01:30:49.818Z,95.30
2018-12-08T01:32:54.550Z,95.20
2018-12-08T01:35:00.695Z,94.90
2018-12-08T01:37:05.138Z,95.10
2018-12-08T01:39:09.635Z,95.10
2018-12-08T01:41:14.862Z,95.20
2018-12-08T01:43:19.288Z,95.10
2018-12-08T01:45:29.739Z,95.20
2018-12-08T01:47:34.902Z,95.10
2018-12-08T01:49:42.313Z,95.00
2018-12-08T01:51:48.876Z,95.00
2018-12-08T01:53:55.016Z,94.80
2018-12-08T01:56:02.142Z,94.80
2018-12-08T01:58:09.755Z,94.80
2018-12-08T02:00:16.273Z,94.90
2018-12-08T02:02:21.831Z,95.00
2018-12-08T02:04:26.418Z,94.90
2018-12-08T02:06:36.503Z,95.00
2018-12-08T02:08:41.306Z,95.10
2018-12-08T02:10:47.271Z,95.40
2018-12-08T02:12:52.163Z,95.10
2018-12-08T02:14:58.996Z,95.10
2018-12-08T02:17:04.790Z,95.10
2018-12-08T02:19:12.666Z,95.10
2018-12-08T02:21:21.786Z,95.20
2018-12-08T02:23:28.342Z,95.30
2018-12-08T02:25:34.805Z,95.40
2018-12-08T02:27:40.645Z,95.60
2018-12-08T02:29:46.905Z,95.70
2018-12-08T02:31:52.825Z,95.80
2018-12-08T02:33:57.692Z,95.70
2018-12-08T02:36:02.265Z,95.90
2018-12-08T02:38:09.810Z,96.00
2018-12-08T02:40:14.399Z,96.40
2018-12-08T02:42:19.581Z,96.50
2018-12-08T02:44:24.685Z,96.10
2018-12-08T02:46:29.586Z,96.30
2018-12-08T02:48:34.706Z,96.60
2018-12-08T02:50:39.954Z,96.80
2018-12-08T02:52:44.742Z,97.00
2018-12-08T02:54:54.670Z,97.00
2018-12-08T02:57:00.368Z,97.10
2018-12-08T02:59:05.132Z,97.20
2018-12-08T03:01:09.899Z,97.10
2018-12-08T03:03:14.986Z,97.00
2018-12-08T03:05:20.644Z,97.20
2018-12-08T03:07:25.130Z,97.20
2018-12-08T03:09:35.319Z,97.30
2018-12-08T03:11:40.468Z,97.30
2018-12-08T03:13:45.238Z,97.30
2018-12-08T03:15:51.891Z,97.20
2018-12-08T03:17:56.675Z,97.30
2018-12-08T03:20:04.460Z,97.20
2018-12-08T03:22:13.889Z,97.30
2018-12-08T03:24:19.482Z,97.10
2018-12-08T03:26:25.697Z,96.90
2018-12-08T03:28:30.411Z,97.00
2018-12-08T03:30:37.450Z,96.80
2018-12-08T03:32:44.563Z,96.80
2018-12-08T03:34:52.889Z,96.80
2018-12-08T03:36:58.654Z,97.20
2018-12-08T03:39:05.813Z,97.00
2018-12-08T03:41:10.911Z,96.80
2018-12-08T03:43:15.588Z,97.00
2018-12-08T03:45:23.562Z,97.20
2018-12-08T03:47:30.144Z,97.50
2018-12-08T03:49:36.382Z,97.60
2018-12-08T03:51:41.335Z,97.70
2018-12-08T03:53:46.246Z,97.80
2018-12-08T03:55:51.930Z,98.00
2018-12-08T03:57:58.046Z,98.20
2018-12-08T04:00:04.343Z,98.10
2018-12-08T04:02:09.292Z,98.10
2018-12-08T04:04:14.601Z,98.40
2018-12-08T04:06:20.130Z,98.40
2018-12-08T04:08:26.639Z,98.20
2018-12-08T04:10:32.002Z,98.40
2018-12-08T04:12:38.289Z,98.40
2018-12-08T04:14:45.432Z,98.40
2018-12-08T04:16:51.092Z,98.30
2018-12-08T04:18:55.803Z,98.30
2018-12-08T04:21:00.969Z,98.10
2018-12-08T04:23:06.871Z,97.90
2018-12-08T04:25:12.878Z,97.90
2018-12-08T04:27:18.394Z,98.30
2018-12-08T04:29:23.849Z,97.90
2018-12-08T04:31:29.480Z,97.70
2018-12-08T04:33:34.371Z,97.70
2018-12-08T04:35:39.574Z,97.60
2018-12-08T04:37:45.344Z,97.40
2018-12-08T04:39:50.038Z,97.40
2018-12-08T04:41:54.757Z,97.30
2018-12-08T04:44:00.315Z,97.30
2018-12-08T04:46:05.205Z,97.10
2018-12-08T04:48:10.177Z,97.00
2018-12-08T04:50:17.879Z,97.20
2018-12-08T04:52:22.816Z,97.30
2018-12-08T04:54:28.548Z,97.20
2018-12-08T04:56:35.499Z,97.20
2018-12-08T04:58:40.444Z,97.40
2018-12-08T05:00:47.749Z,97.40
2018-12-08T05:02:57.353Z,97.50
2018-12-08T05:05:02.412Z,97.40
2018-12-08T05:07:07.353Z,97.60
2018-12-08T05:09:13.670Z,97.60
2018-12-08T05:11:27.770Z,97.50
2018-12-08T05:13:32.724Z,97.50
2018-12-08T05:15:39.568Z,97.60
2018-12-08T05:17:47.697Z,97.90
2018-12-08T05:19:55.699Z,97.60
2018-12-08T05:22:00.872Z,97.60
2018-12-08T05:24:09.935Z,98.10
2018-12-08T05:26:16.890Z,97.50
2018-12-08T05:28:23.317Z,97.50
2018-12-08T05:30:28.069Z,97.80
2018-12-08T05:32:33.997Z,97.80
2018-12-08T05:34:40.366Z,97.60
2018-12-08T05:36:45.380Z,97.60
2018-12-08T05:38:50.183Z,97.70
2018-12-08T05:40:56.695Z,97.90
2018-12-08T05:43:01.638Z,97.90
2018-12-08T05:45:06.594Z,97.90
2018-12-08T05:47:13.832Z,97.90
2018-12-08T05:49:18.965Z,97.80
2018-12-08T05:51:24.061Z,97.70
2018-12-08T05:53:29.818Z,97.50
2018-12-08T05:55:35.842Z,97.50
2018-12-08T05:57:40.785Z,97.50
2018-12-08T05:59:46.085Z,97.50
2018-12-08T06:01:51.001Z,97.60
2018-12-08T06:03:55.764Z,97.60
2018-12-08T06:06:00.861Z,97.80
2018-12-08T06:08:05.689Z,97.90
2018-12-08T06:10:13.372Z,98.20
2018-12-08T06:12:18.721Z,98.30
2018-12-08T06:14:24.651Z,98.40
2018-12-08T06:16:30.898Z,98.20
2018-12-08T06:18:36.812Z,97.90
2018-12-08T06:20:43.197Z,98.00
2018-12-08T06:22:48.542Z,98.00
2018-12-08T06:24:53.232Z,97.80
2018-12-08T06:27:36.331Z,97.80
2018-12-08T06:29:41.328Z,98.00
2018-12-08T06:31:47.753Z,98.00
2018-12-08T06:33:54.970Z,98.20
2018-12-08T06:36:00.178Z,98.20
2018-12-08T06:38:05.824Z,98.10
2018-12-08T06:40:11.196Z,98.20
2018-12-08T06:42:16.043Z,98.60
2018-12-08T06:44:22.573Z,97.90
2018-12-08T06:46:27.387Z,97.80
2018-12-08T06:48:33.915Z,97.50
2018-12-08T06:50:39.759Z,97.50
2018-12-08T06:52:45.349Z,97.50
2018-12-08T06:54:50.157Z,97.50
2018-12-08T06:56:55.291Z,97.30
2018-12-08T06:59:00.129Z,97.30
2018-12-08T07:01:08.474Z,97.30
2018-12-08T07:03:14.042Z,97.50
2018-12-08T07:05:19.970Z,97.30
2018-12-08T07:07:24.768Z,97.50
2018-12-08T07:09:31.459Z,97.30
2018-12-08T07:11:37.155Z,97.10
2018-12-08T07:13:41.833Z,97.00
2018-12-08T07:15:48.300Z,97.10
2018-12-08T07:17:54.530Z,97.10
2018-12-08T07:20:00.839Z,97.10
2018-12-08T07:22:13.425Z,97.10
2018-12-08T07:24:18.927Z,97.10
2018-12-08T07:26:24.815Z,97.30
2018-12-08T07:28:31.481Z,97.40
2018-12-08T07:30:36.589Z,97.70
2018-12-08T07:32:41.261Z,97.70
2018-12-08T07:34:47.089Z,97.80
2018-12-08T07:36:53.870Z,97.90
2018-12-08T07:38:59.649Z,97.90
2018-12-08T07:41:05.587Z,97.70
2018-12-08T07:43:17.441Z,97.80
2018-12-08T07:45:26.478Z,97.60
2018-12-08T07:47:32.401Z,97.70
2018-12-08T07:49:37.579Z,97.50
2018-12-08T07:51:44.405Z,97.40
2018-12-08T07:53:50.784Z,97.30
2018-12-08T07:55:57.531Z,97.30
2018-12-08T07:58:05.758Z,97.20
2018-12-08T08:00:18.599Z,97.30
2018-12-08T08:02:24.694Z,97.40
2018-12-08T08:04:30.529Z,97.30
2018-12-08T08:06:36.859Z,96.80
2018-12-08T08:08:41.597Z,97.00
2018-12-08T08:10:46.404Z,97.10
2018-12-08T08:12:52.070Z,97.00
2018-12-08T08:14:57.621Z,97.10
2018-12-08T08:17:04.714Z,96.90
2018-12-08T08:19:12.774Z,97.00
2018-12-08T08:21:21.280Z,97.40
2018-12-08T08:23:27.813Z,97.30
2018-12-08T08:25:35.342Z,97.30
2018-12-08T08:27:43.737Z,97.70
2018-12-08T08:29:49.828Z,97.70
2018-12-08T08:31:56.463Z,97.60
2018-12-08T08:34:03.396Z,97.70
2018-12-08T08:36:09.514Z,97.90
2018-12-08T08:38:18.138Z,98.20
2018-12-08T08:40:24.627Z,98.40
2018-12-08T08:42:30.525Z,98.50
2018-12-08T08:44:39.069Z,98.90
2018-12-08T08:46:46.157Z,98.90
2018-12-08T08:48:53.869Z,98.80
2018-12-08T08:51:01.284Z,98.60
2018-12-08T08:53:07.483Z,98.90
2018-12-08T08:55:16.076Z,98.80
2018-12-08T08:57:21.383Z,98.80
2018-12-08T08:59:29.423Z,98.80
2018-12-08T09:01:37.418Z,98.50
2018-12-08T09:05:56.326Z,98.50
2018-12-08T09:08:12.833Z,98.50
2018-12-08T09:10:20.809Z,98.40
2018-12-08T09:12:39.479Z,98.00
2018-12-08T09:14:46.045Z,97.90
2018-12-08T09:16:53.505Z,97.70
2018-12-08T09:19:07.404Z,97.50
2018-12-08T09:21:13.286Z,97.40
2018-12-08T09:23:18.569Z,97.40
2018-12-08T09:25:25.669Z,97.50
2018-12-08T09:27:32.298Z,97.40
2018-12-08T09:29:38.325Z,97.50
2018-12-08T09:31:44.197Z,97.50
2018-12-08T09:33:49.950Z,97.40
2018-12-08T09:35:56.771Z,97.40
2018-12-08T09:38:04.108Z,97.40
2018-12-08T09:40:12.017Z,97.60
2018-12-08T09:42:27.183Z,98.00
2018-12-08T09:44:43.295Z,98.20
2018-12-08T09:46:58.843Z,98.20
2018-12-08T09:49:12.460Z,98.80
2018-12-08T09:51:25.481Z,98.80
2018-12-08T09:53:37.201Z,99.20
2018-12-08T09:55:44.610Z,99.30
2018-12-08T09:58:00.771Z,99.40
2018-12-08T10:00:13.290Z,99.80
2018-12-08T10:02:21.253Z,99.90
2018-12-08T10:04:32.679Z,99.90
2018-12-08T10:06:38.362Z,99.90
2018-12-08T10:08:46.218Z,99.90
2018-12-08T10:10:54.464Z,99.90
2018-12-08T10:13:02.244Z,99.80
2018-12-08T10:15:09.914Z,99.90
2018-12-08T10:17:17.410Z,99.50
2018-12-08T10:19:24.183Z,99.70
2018-12-08T10:21:30.894Z,99.60
2018-12-08T10:23:41.305Z,99.60
2018-12-08T10:25:46.673Z,99.40
2018-12-08T10:27:53.201Z,99.40
2018-12-08T10:29:58.651Z,99.60
2018-12-08T10:32:06.110Z,99.90
2018-12-08T10:34:13.999Z,99.70
2018-12-08T10:36:22.781Z,99.40
2018-12-08T10:38:30.881Z,99.20
2018-12-08T10:40:42.652Z,99.20
2018-12-08T10:42:52.998Z,99.20
2018-12-08T10:44:58.324Z,99.20
2018-12-08T10:47:04.621Z,99.20
2018-12-08T10:49:10.772Z,99.30
2018-12-08T10:51:15.756Z,99.20
2018-12-08T10:53:23.822Z,98.70
2018-12-08T10:55:33.410Z,98.50
2018-12-08T10:57:39.006Z,98.80
2018-12-08T10:59:49.628Z,98.90
2018-12-08T11:02:01.811Z,98.70
2018-12-08T11:04:08.847Z,98.80
2018-12-08T11:06:16.977Z,98.90
2018-12-08T11:08:25.734Z,99.20
2018-12-08T11:10:32.601Z,98.80
2018-12-08T11:12:38.842Z,98.90
2018-12-08T11:14:43.755Z,98.40
2018-12-08T11:16:52.226Z,98.00
2018-12-08T11:18:58.726Z,98.10
2018-12-08T11:21:05.772Z,97.50
2018-12-08T11:23:13.054Z,97.20
2018-12-08T11:25:21.294Z,96.90
2018-12-08T11:27:27.261Z,96.60
2018-12-08T11:29:35.788Z,96.70
2018-12-08T11:31:41.597Z,96.70
2018-12-08T11:33:49.387Z,96.60
2018-12-08T11:35:55.388Z,96.80
2018-12-08T11:38:01.991Z,96.70
2018-12-08T11:40:07.036Z,96.70
2018-12-08T11:42:14.420Z,96.70
2018-12-08T11:44:28.195Z,97.10
2018-12-08T11:46:35.814Z,97.50
2018-12-08T11:48:42.473Z,97.80
2018-12-08T11:50:49.834Z,97.70
2018-12-08T11:52:58.743Z,97.30
2018-12-08T11:55:08.985Z,97.00
2018-12-08T11:57:15.831Z,96.90
2018-12-08T11:59:22.497Z,97.00
2018-12-08T12:01:30.527Z,96.70
2018-12-08T12:03:38.079Z,96.40
2018-12-08T12:05:44.522Z,96.30
2018-12-08T12:07:51.135Z,96.10
2018-12-08T12:10:01.606Z,96.20
2018-12-08T12:12:06.614Z,96.50
2018-12-08T12:14:11.594Z,96.00
2018-12-08T12:16:19.487Z,96.50
2018-12-08T12:18:24.409Z,96.50
2018-12-08T12:20:30.703Z,96.30
2018-12-08T12:22:36.056Z,96.10
2018-12-08T12:24:43.311Z,95.90
2018-12-08T12:26:49.864Z,95.80
2018-12-08T12:29:02.008Z,95.90
2018-12-08T12:31:08.083Z,95.90
2018-12-08T12:33:16.676Z,96.00
2018-12-08T12:35:22.841Z,95.80
2018-12-08T12:37:28.079Z,95.90
2018-12-08T12:39:33.138Z,95.80
2018-12-08T12:41:39.542Z,95.70
2018-12-08T12:43:44.320Z,96.10
2018-12-08T12:45:50.714Z,95.70
2018-12-08T12:47:57.905Z,96.00
2018-12-08T12:50:04.025Z,95.90
2018-12-08T12:52:10.528Z,96.20
2018-12-08T12:54:17.072Z,96.20
2018-12-08T12:56:22.538Z,96.30
2018-12-08T12:58:29.898Z,96.10
2018-12-08T13:00:35.833Z,96.10
2018-12-08T13:02:42.796Z,96.00
2018-12-08T13:04:49.498Z,95.50
2018-12-08T13:07:00.028Z,95.40
2018-12-08T13:09:06.398Z,95.50
2018-12-08T13:11:14.383Z,95.80
2018-12-08T13:13:20.667Z,96.00
2018-12-08T13:15:28.039Z,96.30
2018-12-08T13:17:38.323Z,96.60
2018-12-08T13:19:44.055Z,96.50
2018-12-08T13:21:56.436Z,96.50
2018-12-08T13:24:02.043Z,96.70
2018-12-08T13:26:06.946Z,96.70
2018-12-08T13:28:12.465Z,96.60
2018-12-08T13:30:22.860Z,96.70
2018-12-08T13:32:28.461Z,96.50
2018-12-08T13:34:33.825Z,96.60
2018-12-08T13:36:38.625Z,96.40
2018-12-08T13:38:44.936Z,96.40
2018-12-08T13:40:51.077Z,96.30
2018-12-08T13:42:56.021Z,96.40
2018-12-08T13:45:13.575Z,96.30
2018-12-08T13:47:22.341Z,96.00
2018-12-08T13:49:30.888Z,96.00
2018-12-08T13:51:36.710Z,96.20
2018-12-08T13:53:41.546Z,96.10
2018-12-08T13:55:49.340Z,96.10
2018-12-08T13:57:55.882Z,96.00
2018-12-08T14:00:07.812Z,96.10
2018-12-08T14:02:12.641Z,96.20
2018-12-08T14:04:17.951Z,96.00
2018-12-08T14:06:25.134Z,96.10
2018-12-08T14:08:32.822Z,96.00
2018-12-08T14:10:44.153Z,96.00
2018-12-08T14:12:51.342Z,96.20
2018-12-08T14:15:01.278Z,96.10
2018-12-08T14:17:10.543Z,96.00
2018-12-08T14:19:18.751Z,96.40
2018-12-08T14:21:24.451Z,96.40
2018-12-08T14:23:30.808Z,96.70
2018-12-08T14:25:41.497Z,97.00
2018-12-08T14:27:49.610Z,97.10
2018-12-08T14:29:59.038Z,97.20
2018-12-08T14:32:07.757Z,97.80
2018-12-08T14:34:15.851Z,97.60
2018-12-08T14:36:21.929Z,97.70
2018-12-08T14:38:27.542Z,97.70
2018-12-08T14:40:33.702Z,97.60
2018-12-08T14:42:40.553Z,97.90
2018-12-08T14:44:48.266Z,98.10
2018-12-08T14:46:55.058Z,98.10
2018-12-08T14:49:07.549Z,98.40
2018-12-08T14:51:13.955Z,98.60
2018-12-08T14:53:20.700Z,98.70
2018-12-08T14:55:27.301Z,98.90
2018-12-08T14:57:32.757Z,99.10
2018-12-08T14:59:40.914Z,99.00
2018-12-08T15:01:50.258Z,98.90
2018-12-08T15:03:55.976Z,98.80
2018-12-08T15:06:03.067Z,99.00
2018-12-08T15:08:08.139Z,98.80
2018-12-08T15:10:14.368Z,98.60
2018-12-08T15:12:19.813Z,98.50
2018-12-08T15:14:29.717Z,98.60
2018-12-08T15:16:34.576Z,98.60
2018-12-08T15:18:45.591Z,98.50
2018-12-08T15:20:53.278Z,98.60
2018-12-08T15:22:59.498Z,98.50
2018-12-08T15:25:05.658Z,98.40
2018-12-08T15:27:10.869Z,98.50
2018-12-08T15:29:15.528Z,98.60
2018-12-08T15:31:22.046Z,98.40
2018-12-08T15:33:30.651Z,98.50
2018-12-08T15:35:37.409Z,98.50
2018-12-08T15:37:43.001Z,98.40
2018-12-08T15:39:50.468Z,98.50
2018-12-08T15:41:55.600Z,98.10
2018-12-08T15:44:00.413Z,98.10
2018-12-08T15:46:12.846Z,98.10
2018-12-08T15:53:29.903Z,98.20
2018-12-08T15:55:34.478Z,98.10
2018-12-08T15:57:40.296Z,98.00
2018-12-08T15:59:44.610Z,98.00
2018-12-08T16:01:52.297Z,98.00
2018-12-08T16:03:58.838Z,98.10
2018-12-08T16:06:03.713Z,98.10
2018-12-08T16:08:10.372Z,98.50
2018-12-08T16:10:15.050Z,99.00
2018-12-08T16:12:19.353Z,99.30
2018-12-08T16:14:23.647Z,99.60
2018-12-08T16:16:28.393Z,99.90
2018-12-08T16:18:39.395Z,99.90
2018-12-08T16:20:49.684Z,99.90
2018-12-08T16:23:01.681Z,99.80
2018-12-08T16:25:10.517Z,99.50
2018-12-08T16:27:19.747Z,99.70
2018-12-08T16:29:31.267Z,99.50
2018-12-08T16:31:39.159Z,99.60
2018-12-08T16:33:51.192Z,99.50
2018-12-08T16:36:07.216Z,99.60
2018-12-08T16:38:18.276Z,99.30
2018-12-08T16:40:25.928Z,99.20
2018-12-08T16:42:33.907Z,99.00
2018-12-08T16:44:48.163Z,99.10
2018-12-08T16:46:59.302Z,99.10
2018-12-08T16:49:07.523Z,99.40
2018-12-08T16:51:15.153Z,99.60
2018-12-08T16:53:27.353Z,99.80
2018-12-08T16:55:36.694Z,99.80
2018-12-08T16:57:46.300Z,99.80
2018-12-08T16:59:55.471Z,99.70
2018-12-08T17:02:06.846Z,99.70
2018-12-08T17:04:21.619Z,99.70
2018-12-08T17:06:33.661Z,99.70
2018-12-08T17:08:44.346Z,99.60
2018-12-08T17:10:55.081Z,99.40
2018-12-08T17:13:12.433Z,99.50
2018-12-08T17:15:33.823Z,99.30
2018-12-08T17:17:38.797Z,99.40
2018-12-08T17:19:43.673Z,99.60
2018-12-08T17:21:51.552Z,99.50
2018-12-08T17:23:56.794Z,99.60
2018-12-08T17:26:03.493Z,99.70
2018-12-08T17:28:09.495Z,99.80
2018-12-08T17:30:15.609Z,99.80
2018-12-08T17:32:19.910Z,99.70
2018-12-08T17:34:26.885Z,99.50
2018-12-08T17:36:33.548Z,99.50
2018-12-08T17:38:38.611Z,99.30
2018-12-08T17:40:42.922Z,99.40
2018-12-08T17:42:47.257Z,99.30
2018-12-08T17:44:51.524Z,99.30
2018-12-08T17:46:58.307Z,99.50
2018-12-08T17:49:03.172Z,99.50
2018-12-08T17:51:09.695Z,99.60
2018-12-08T17:53:15.299Z,99.50
2018-12-08T17:55:22.455Z,99.70
2018-12-08T17:57:27.803Z,99.80
2018-12-08T17:59:32.466Z,99.60
2018-12-08T18:01:42.015Z,99.70
2018-12-08T18:03:47.971Z,99.50
2018-12-08T18:05:54.503Z,99.60
2018-12-08T18:08:03.587Z,99.40
2018-12-08T18:10:09.958Z,99.20
2018-12-08T18:12:18.379Z,99.00
2018-12-08T18:14:24.219Z,98.80
2018-12-08T18:16:29.249Z,98.90
2018-12-08T18:18:34.609Z,98.80
2018-12-08T18:20:42.574Z,98.60
2018-12-08T18:22:47.739Z,98.40
2018-12-08T18:24:52.378Z,98.60
2018-12-08T18:26:57.594Z,98.70
2018-12-08T18:29:02.979Z,98.40
2018-12-08T18:31:14.700Z,98.40
2018-12-08T18:33:20.424Z,98.60
2018-12-08T18:35:24.961Z,98.50
2018-12-08T18:37:29.808Z,98.70
2018-12-08T18:39:34.030Z,98.60
2018-12-08T18:41:38.424Z,98.60
2018-12-08T18:43:44.579Z,98.70
2018-12-08T18:45:49.911Z,98.90
2018-12-08T18:47:57.815Z,98.90
2018-12-08T18:50:04.500Z,99.00
2018-12-08T18:52:08.859Z,99.20
2018-12-08T18:54:13.930Z,99.10
2018-12-08T18:56:18.587Z,99.00
2018-12-08T18:58:23.595Z,99.10
2018-12-08T19:00:27.857Z,99.20
2018-12-08T19:02:33.437Z,99.30
2018-12-08T19:04:38.773Z,99.30
2018-12-08T19:06:45.469Z,99.30
2018-12-08T19:08:50.811Z,99.10
2018-12-08T19:10:57.104Z,99.00
2018-12-08T19:13:02.663Z,99.00
2018-12-08T19:15:11.954Z,99.10
2018-12-08T19:17:17.494Z,99.50
2018-12-08T19:19:24.855Z,99.90
2018-12-08T19:21:31.276Z,99.90
2018-12-08T19:23:43.607Z,99.90
2018-12-08T19:25:46.049Z,99.90
2018-12-08T19:27:50.332Z,99.90
2018-12-08T19:29:55.617Z,99.90
2018-12-08T19:32:01.437Z,99.90
2018-12-08T19:34:08.244Z,99.90
2018-12-08T19:36:14.183Z,99.90
2018-12-08T19:38:19.002Z,99.90
2018-12-08T19:40:23.828Z,99.90
2018-12-08T19:42:31.509Z,99.90
2018-12-08T19:44:38.985Z,99.90
2018-12-08T19:46:44.724Z,99.90
2018-12-08T19:48:53.074Z,99.90
2018-12-08T19:50:58.216Z,99.90
2018-12-08T19:53:07.085Z,99.90
2018-12-08T19:55:12.716Z,99.90
2018-12-08T19:57:21.342Z,99.90
2018-12-08T19:59:27.305Z,99.90
2018-12-08T20:01:32.785Z,99.90
2018-12-08T20:03:41.118Z,99.90
2018-12-08T20:05:51.302Z,99.90
2018-12-08T20:07:59.392Z,99.90
2018-12-08T20:10:08.305Z,99.90
2018-12-08T20:12:13.163Z,99.90
2018-12-08T20:14:18.402Z,99.90
2018-12-08T20:16:24.291Z,99.90
2018-12-08T20:18:30.383Z,99.90
2018-12-08T20:20:36.527Z,99.90
2018-12-08T20:22:45.674Z,99.90
2018-12-08T20:24:50.008Z,99.90
2018-12-08T20:26:56.054Z,99.90
2018-12-08T20:29:03.330Z,99.90
2018-12-08T20:31:12.658Z,99.90
2018-12-08T20:33:20.068Z,99.90
2018-12-08T20:35:25.841Z,99.90
2018-12-08T20:37:31.002Z,99.90
2018-12-08T20:39:35.307Z,99.90
2018-12-08T20:41:42.045Z,99.90
2018-12-08T20:43:47.151Z,99.90
2018-12-08T20:45:52.955Z,99.90
2018-12-08T20:47:57.671Z,99.90
2018-12-08T20:50:06.373Z,99.90
2018-12-08T20:52:12.155Z,99.90
2018-12-08T20:56:29.377Z,99.90
2018-12-08T20:58:33.721Z,99.90
2018-12-08T21:02:41.586Z,99.90
2018-12-08T21:04:56.634Z,99.90
2018-12-08T21:07:02.426Z,99.90
2018-12-08T21:09:08.684Z,99.90
2018-12-08T21:11:13.989Z,99.90
2018-12-08T21:13:20.381Z,99.90
2018-12-08T21:15:26.096Z,99.90
2018-12-08T21:17:31.577Z,99.90
2018-12-08T21:19:44.105Z,99.90
2018-12-08T21:21:48.978Z,99.90
2018-12-08T21:23:54.038Z,99.90
2018-12-08T21:25:59.612Z,99.90
2018-12-08T21:28:04.316Z,99.90
2018-12-08T21:30:08.751Z,99.90
2018-12-08T21:32:18.241Z,99.90
2018-12-08T21:34:23.892Z,99.90
2018-12-08T21:36:28.191Z,99.90
2018-12-08T21:38:34.434Z,99.90
2018-12-08T21:40:40.844Z,99.90
2018-12-08T21:42:52.906Z,99.90
2018-12-08T21:44:58.264Z,99.90
2018-12-08T21:47:05.803Z,99.90
2018-12-08T21:49:13.631Z,99.90
2018-12-08T21:51:21.419Z,99.90
2018-12-08T21:53:25.770Z,99.90
2018-12-08T21:55:34.137Z,99.90
2018-12-08T21:57:41.477Z,99.90
2018-12-08T21:59:45.784Z,99.90
2018-12-08T22:04:15.450Z,99.90
2018-12-08T22:08:46.225Z,99.90
2018-12-08T22:10:55.712Z,99.90
2018-12-08T22:13:13.942Z,99.90
2018-12-08T22:15:25.353Z,99.90
2018-12-08T22:17:38.379Z,99.90
2018-12-08T22:19:49.295Z,99.90
2018-12-08T22:22:04.272Z,99.90
2018-12-08T22:24:15.269Z,99.90
2018-12-08T22:26:26.780Z,99.90
2018-12-08T22:28:37.170Z,99.90
2018-12-08T22:30:45.223Z,99.90
2018-12-08T22:32:53.098Z,99.90
2018-12-08T22:35:01.056Z,99.90
2018-12-08T22:37:12.489Z,99.90
2018-12-08T22:39:37.262Z,99.90
2018-12-08T22:41:49.368Z,99.90
2018-12-08T22:44:01.323Z,99.90
2018-12-08T22:46:14.374Z,99.90
2018-12-08T22:48:21.258Z,99.90
2018-12-08T22:50:27.970Z,99.90
2018-12-08T22:52:51.485Z,99.90
2018-12-08T22:55:09.303Z,99.90
2018-12-08T22:57:20.265Z,99.90
2018-12-08T22:59:27.021Z,99.90
2018-12-08T23:01:37.315Z,99.90
2018-12-08T23:03:46.668Z,99.90
2018-12-08T23:05:54.495Z,99.90
2018-12-08T23:08:04.208Z,99.90
2018-12-08T23:10:10.222Z,99.90
2018-12-08T23:12:16.467Z,99.90
2018-12-08T23:16:40.902Z,99.90
2018-12-08T23:18:47.268Z,99.90
2018-12-08T23:20:55.086Z,99.90
2018-12-08T23:23:01.060Z,99.90
2018-12-08T23:25:07.181Z,99.90
2018-12-08T23:27:12.370Z,99.90
2018-12-08T23:29:20.165Z,99.90
2018-12-08T23:31:25.870Z,99.90
2018-12-08T23:33:31.517Z,99.90
2018-12-08T23:35:38.479Z,99.90
2018-12-08T23:37:46.325Z,99.90
2018-12-08T23:39:56.435Z,99.90
2018-12-08T23:42:02.707Z,99.90
2018-12-08T23:44:09.874Z,99.90
2018-12-08T23:46:14.950Z,99.90
2018-12-08T23:48:21.277Z,99.90
2018-12-08T23:50:30.029Z,99.90
2018-12-08T23:52:38.107Z,99.90
2018-12-08T23:54:43.743Z,99.90
2018-12-08T23:56:53.623Z,99.90
2018-12-08T23:59:02.926Z,99.90
